createdAt,value
2018-03-16T00:00:52.230Z,15.70
2018-03-16T00:03:26.380Z,16.10
2018-03-16T00:06:00.139Z,15.57
2018-03-16T00:08:33.906Z,15.97
2018-03-16T00:11:07.499Z,15.43
2018-03-16T00:13:41.055Z,16.60
2018-03-16T00:16:14.861Z,15.90
2018-03-16T00:18:48.440Z,16.80
2018-03-16T00:21:22.226Z,16.93
2018-03-16T00:23:55.814Z,16.27
2018-03-16T00:26:29.426Z,18.10
2018-03-16T00:29:03.220Z,16.83
2018-03-16T00:31:37.014Z,16.80
2018-03-16T00:34:10.712Z,16.80
2018-03-16T00:36:44.298Z,16.17
2018-03-16T00:39:18.083Z,17.70
2018-03-16T00:41:51.624Z,16.87
2018-03-16T00:44:25.151Z,16.10
2018-03-16T00:46:58.755Z,17.37
2018-03-16T00:49:32.416Z,16.90
2018-03-16T00:52:05.956Z,17.10
2018-03-16T00:54:39.591Z,16.50
2018-03-16T00:57:13.212Z,17.43
2018-03-16T00:59:46.943Z,16.83
2018-03-16T01:02:20.794Z,16.90
2018-03-16T01:04:54.736Z,16.70
2018-03-16T01:07:28.463Z,17.73
2018-03-16T01:10:02.174Z,17.80
2018-03-16T01:12:35.756Z,17.23
2018-03-16T01:15:09.625Z,18.00
2018-03-16T01:17:43.312Z,18.07
2018-03-16T01:20:17.016Z,18.87
2018-03-16T01:22:50.724Z,16.40
2018-03-16T01:25:24.325Z,17.10
2018-03-16T01:27:57.964Z,17.97
2018-03-16T01:30:31.559Z,17.60
2018-03-16T01:33:05.171Z,19.13
2018-03-16T01:35:38.724Z,19.50
2018-03-16T01:38:12.413Z,18.77
2018-03-16T01:40:46.040Z,17.33
2018-03-16T01:43:19.687Z,20.43
2018-03-16T01:45:53.552Z,17.70
2018-03-16T01:48:27.135Z,17.40
2018-03-16T01:51:00.752Z,18.50
2018-03-16T01:53:34.401Z,17.17
2018-03-16T01:56:07.908Z,19.63
2018-03-16T01:58:41.643Z,19.83
2018-03-16T02:01:15.264Z,19.17
2018-03-16T02:03:48.929Z,20.97
2018-03-16T02:06:22.592Z,19.67
2018-03-16T02:08:56.268Z,19.20
2018-03-16T02:11:29.992Z,17.43
2018-03-16T02:14:03.677Z,20.43
2018-03-16T02:16:37.247Z,19.73
2018-03-16T02:19:11.074Z,19.33
2018-03-16T02:21:44.699Z,20.80
2018-03-16T02:24:18.332Z,19.87
2018-03-16T02:26:52.110Z,19.17
2018-03-16T02:29:25.651Z,19.53
2018-03-16T02:31:59.441Z,20.33
2018-03-16T02:34:32.978Z,21.47
2018-03-16T02:37:06.619Z,21.23
2018-03-16T02:39:40.242Z,21.83
2018-03-16T02:42:13.876Z,20.40
2018-03-16T02:44:47.533Z,20.13
2018-03-16T02:47:21.193Z,21.30
2018-03-16T02:49:54.889Z,20.20
2018-03-16T02:52:28.492Z,21.83
2018-03-16T02:55:02.279Z,21.23
2018-03-16T02:57:36.088Z,21.07
2018-03-16T03:00:09.946Z,21.60
2018-03-16T03:02:43.543Z,20.93
2018-03-16T03:05:17.156Z,19.83
2018-03-16T03:07:50.899Z,20.10
2018-03-16T03:10:24.697Z,22.00
2018-03-16T03:12:58.480Z,20.37
2018-03-16T03:15:32.009Z,20.80
2018-03-16T03:18:05.803Z,21.33
2018-03-16T03:20:39.618Z,20.57
2018-03-16T03:23:13.432Z,21.20
2018-03-16T03:25:47.014Z,22.30
2018-03-16T03:28:20.762Z,20.90
2018-03-16T03:30:54.374Z,20.07
2018-03-16T03:33:28.048Z,21.63
2018-03-16T03:36:01.804Z,21.07
2018-03-16T03:38:35.584Z,21.97
2018-03-16T03:41:09.201Z,22.13
2018-03-16T03:43:43.092Z,21.70
2018-03-16T03:46:16.682Z,21.03
2018-03-16T03:48:50.412Z,21.30
2018-03-16T03:51:24.084Z,22.07
2018-03-16T03:53:57.779Z,21.13
2018-03-16T03:56:31.334Z,21.40
2018-03-16T03:59:04.997Z,22.87
2018-03-16T04:01:38.597Z,20.77
2018-03-16T04:04:12.399Z,23.03
2018-03-16T04:06:46.058Z,21.97
2018-03-16T04:09:19.644Z,22.13
2018-03-16T04:11:53.321Z,22.53
2018-03-16T04:14:27.441Z,22.07
2018-03-16T04:17:17.966Z,22.33
2018-03-16T04:19:51.712Z,22.17
2018-03-16T04:22:25.288Z,23.50
2018-03-16T04:24:59.001Z,23.87
2018-03-16T04:27:32.608Z,23.40
2018-03-16T04:30:06.610Z,23.50
2018-03-16T04:32:40.274Z,24.80
2018-03-16T04:35:13.973Z,23.37
2018-03-16T04:37:47.553Z,22.83
2018-03-16T04:40:21.428Z,23.50
2018-03-16T04:42:55.211Z,23.30
2018-03-16T04:45:29.073Z,24.00
2018-03-16T04:48:02.612Z,24.17
2018-03-16T04:50:36.212Z,23.40
2018-03-16T04:53:09.756Z,23.10
2018-03-16T04:55:43.417Z,23.00
2018-03-16T04:58:16.976Z,21.93
2018-03-16T05:00:50.605Z,22.70
2018-03-16T05:03:24.216Z,22.43
2018-03-16T05:05:57.849Z,24.57
2018-03-16T05:08:31.582Z,22.67
2018-03-16T05:11:05.377Z,23.10
2018-03-16T05:13:39.211Z,23.33
2018-03-16T05:16:12.906Z,23.10
2018-03-16T05:18:46.715Z,23.30
2018-03-16T05:21:20.514Z,22.50
2018-03-16T05:23:54.149Z,22.83
2018-03-16T05:26:27.925Z,23.93
2018-03-16T05:29:01.703Z,23.97
2018-03-16T05:31:35.465Z,22.43
2018-03-16T05:34:09.192Z,25.30
2018-03-16T05:36:42.878Z,25.03
2018-03-16T05:39:16.452Z,22.53
2018-03-16T05:41:50.337Z,23.40
2018-03-16T05:44:23.863Z,23.87
2018-03-16T05:46:57.425Z,22.60
2018-03-16T05:49:30.956Z,26.07
2018-03-16T05:52:04.665Z,23.77
2018-03-16T05:54:38.193Z,24.00
2018-03-16T05:57:11.857Z,24.37
2018-03-16T05:59:45.503Z,25.77
2018-03-16T06:02:19.135Z,24.60
2018-03-16T06:04:52.764Z,24.57
2018-03-16T06:07:26.456Z,22.70
2018-03-16T06:10:00.027Z,22.77
2018-03-16T06:12:33.845Z,23.80
2018-03-16T06:15:07.394Z,22.47
2018-03-16T06:17:41.231Z,24.43
2018-03-16T06:20:14.793Z,22.80
2018-03-16T06:22:48.428Z,25.30
2018-03-16T06:25:22.024Z,24.47
2018-03-16T06:27:55.687Z,22.50
2018-03-16T06:30:29.301Z,23.70
2018-03-16T06:33:02.900Z,24.30
2018-03-16T06:35:36.689Z,24.67
2018-03-16T06:38:10.352Z,23.53
2018-03-16T06:40:44.008Z,21.90
2018-03-16T06:43:17.930Z,25.20
2018-03-16T06:45:51.546Z,21.93
2018-03-16T06:48:25.341Z,23.83
2018-03-16T06:50:59.043Z,23.13
2018-03-16T06:53:32.854Z,24.93
2018-03-16T06:56:06.701Z,24.47
2018-03-16T06:58:40.607Z,23.53
2018-03-16T07:01:14.204Z,23.03
2018-03-16T07:03:48.315Z,22.93
2018-03-16T07:06:21.997Z,22.93
2018-03-16T07:08:55.828Z,22.77
2018-03-16T07:11:29.432Z,24.10
2018-03-16T07:14:03.040Z,23.13
2018-03-16T07:16:36.729Z,23.70
2018-03-16T07:19:10.503Z,22.93
2018-03-16T07:21:44.085Z,25.20
2018-03-16T07:24:17.732Z,24.23
2018-03-16T07:26:51.492Z,25.00
2018-03-16T07:29:25.171Z,24.03
2018-03-16T07:31:58.690Z,24.47
2018-03-16T07:34:32.374Z,22.23
2018-03-16T07:37:06.185Z,20.30
2018-03-16T07:39:39.982Z,21.40
2018-03-16T07:42:13.651Z,21.40
2018-03-16T07:44:47.208Z,22.33
2018-03-16T07:47:20.838Z,22.80
2018-03-16T07:49:54.632Z,22.60
2018-03-16T07:52:28.261Z,22.67
2018-03-16T07:55:02.088Z,23.23
2018-03-16T07:57:35.708Z,25.83
2018-03-16T08:00:09.376Z,22.83
2018-03-16T08:02:42.980Z,23.17
2018-03-16T08:05:16.581Z,23.13
2018-03-16T08:07:50.306Z,21.80
2018-03-16T08:10:24.116Z,21.33
2018-03-16T08:12:57.672Z,21.27
2018-03-16T08:15:31.523Z,21.60
2018-03-16T08:18:05.538Z,24.20
2018-03-16T08:20:39.201Z,22.90
2018-03-16T08:23:12.983Z,23.30
2018-03-16T08:25:46.756Z,22.10
2018-03-16T08:28:20.524Z,20.87
2018-03-16T08:30:54.356Z,20.40
2018-03-16T08:33:27.974Z,22.67
2018-03-16T08:36:01.813Z,20.73
2018-03-16T08:38:35.781Z,21.40
2018-03-16T08:41:09.413Z,20.87
2018-03-16T08:43:42.993Z,18.80
2018-03-16T08:46:16.563Z,17.87
2018-03-16T08:48:50.353Z,17.97
2018-03-16T08:51:24.278Z,17.23
2018-03-16T08:53:58.423Z,17.50
2018-03-16T08:56:32.062Z,16.67
2018-03-16T08:59:05.745Z,17.50
2018-03-16T09:01:39.497Z,17.90
2018-03-16T09:04:13.105Z,16.03
2018-03-16T09:06:46.811Z,17.47
2018-03-16T09:09:20.541Z,17.70
2018-03-16T09:11:54.340Z,16.77
2018-03-16T09:14:28.096Z,16.67
2018-03-16T09:17:01.909Z,17.73
2018-03-16T09:19:35.725Z,16.83
2018-03-16T09:22:09.493Z,19.07
2018-03-16T09:24:43.192Z,18.90
2018-03-16T09:27:16.721Z,16.70
2018-03-16T09:29:50.368Z,16.63
2018-03-16T09:32:24.196Z,16.90
2018-03-16T09:34:57.938Z,16.30
2018-03-16T09:37:31.693Z,16.90
2018-03-16T09:40:05.389Z,18.97
2018-03-16T09:42:39.072Z,18.23
2018-03-16T09:45:13.126Z,17.43
2018-03-16T09:47:46.982Z,18.03
2018-03-16T09:50:21.473Z,17.70
2018-03-16T09:52:55.207Z,18.70
2018-03-16T09:55:40.684Z,18.23
2018-03-16T09:58:14.650Z,17.13
2018-03-16T10:00:48.169Z,16.50
2018-03-16T10:03:21.862Z,16.33
2018-03-16T10:05:55.515Z,17.77
2018-03-16T10:08:29.309Z,18.00
2018-03-16T10:11:02.973Z,18.80
2018-03-16T10:13:36.793Z,18.50
2018-03-16T10:16:10.355Z,18.53
2018-03-16T10:18:44.023Z,17.37
2018-03-16T10:21:17.935Z,21.60
2018-03-16T10:23:51.777Z,22.80
2018-03-16T10:26:26.446Z,20.77
2018-03-16T10:28:59.978Z,22.60
2018-03-16T10:31:33.770Z,27.33
2018-03-16T10:34:07.408Z,26.57
2018-03-16T10:36:41.230Z,27.83
2018-03-16T10:39:15.053Z,27.23
2018-03-16T10:41:48.614Z,29.00
2018-03-16T10:44:22.424Z,27.53
2018-03-16T10:49:59.221Z,26.37
2018-03-16T10:52:33.136Z,27.80
2018-03-16T10:55:06.704Z,27.87
2018-03-16T10:57:40.356Z,27.13
2018-03-16T11:00:14.387Z,26.67
2018-03-16T11:02:50.988Z,26.67
2018-03-16T11:05:28.587Z,27.27
2018-03-16T11:08:05.210Z,27.20
2018-03-16T11:10:38.890Z,28.17
2018-03-16T11:13:12.468Z,27.53
2018-03-16T11:15:46.127Z,28.43
2018-03-16T11:18:19.917Z,29.63
2018-03-16T11:20:53.714Z,28.27
2018-03-16T11:23:27.582Z,27.90
2018-03-16T11:26:01.355Z,28.30
2018-03-16T11:28:34.933Z,29.37
2018-03-16T11:31:08.811Z,27.70
2018-03-16T11:33:42.479Z,26.07
2018-03-16T11:36:16.247Z,26.07
2018-03-16T11:38:49.893Z,27.23
2018-03-16T11:41:23.685Z,26.17
2018-03-16T11:43:57.280Z,26.20
2018-03-16T11:46:31.048Z,26.97
2018-03-16T11:49:04.747Z,25.97
2018-03-16T11:51:38.317Z,23.80
2018-03-16T11:54:11.926Z,24.67
2018-03-16T11:56:45.565Z,24.43
2018-03-16T11:59:19.142Z,21.40
2018-03-16T12:01:52.791Z,21.80
2018-03-16T12:04:26.401Z,22.33
2018-03-16T12:07:00.166Z,21.17
2018-03-16T12:09:33.965Z,21.60
2018-03-16T12:12:07.640Z,21.03
2018-03-16T12:14:41.196Z,21.00
2018-03-16T12:17:14.828Z,19.53
2018-03-16T12:19:48.531Z,18.90
2018-03-16T12:22:22.094Z,21.07
2018-03-16T12:24:55.707Z,20.27
2018-03-16T12:27:29.493Z,21.73
2018-03-16T12:30:03.426Z,22.63
2018-03-16T12:32:37.225Z,22.93
2018-03-16T12:35:11.057Z,24.17
2018-03-16T12:37:44.650Z,24.33
2018-03-16T12:40:18.442Z,23.37
2018-03-16T12:42:52.254Z,23.30
2018-03-16T12:45:26.006Z,23.57
2018-03-16T12:47:59.680Z,24.67
2018-03-16T12:50:33.445Z,29.97
2018-03-16T12:53:07.212Z,22.83
2018-03-16T12:55:41.058Z,24.63
2018-03-16T12:58:15.024Z,26.13
2018-03-16T13:00:48.580Z,25.87
2018-03-16T13:03:22.224Z,25.70
2018-03-16T13:05:55.796Z,27.20
2018-03-16T13:08:29.480Z,25.80
2018-03-16T13:11:03.240Z,27.57
2018-03-16T13:13:36.956Z,27.67
2018-03-16T13:16:10.809Z,27.43
2018-03-16T13:18:44.603Z,26.77
2018-03-16T13:21:18.398Z,26.27
2018-03-16T13:23:52.009Z,26.27
2018-03-16T13:26:25.782Z,24.73
2018-03-16T13:28:59.352Z,27.20
2018-03-16T13:31:32.888Z,26.47
2018-03-16T13:34:06.522Z,27.33
2018-03-16T13:36:40.304Z,28.33
2018-03-16T13:39:13.908Z,29.80
2018-03-16T13:41:47.569Z,28.13
2018-03-16T13:44:21.597Z,29.07
2018-03-16T13:46:55.190Z,30.43
2018-03-16T13:49:28.977Z,31.67
2018-03-16T13:52:02.811Z,30.30
2018-03-16T13:54:36.372Z,31.50
2018-03-16T13:57:10.136Z,30.80
2018-03-16T13:59:43.810Z,32.70
2018-03-16T14:02:17.405Z,33.60
2018-03-16T14:04:51.206Z,33.73
2018-03-16T14:07:24.960Z,34.17
2018-03-16T14:09:58.686Z,33.47
2018-03-16T14:12:32.401Z,31.90
2018-03-16T14:15:06.162Z,30.57
2018-03-16T14:17:39.875Z,27.67
2018-03-16T14:20:13.723Z,24.97
2018-03-16T14:22:47.408Z,24.17
2018-03-16T14:25:21.233Z,24.27
2018-03-16T14:27:55.200Z,25.70
2018-03-16T14:30:28.956Z,24.17
2018-03-16T14:33:02.701Z,22.00
2018-03-16T14:35:36.329Z,20.57
2018-03-16T14:38:09.951Z,19.27
2018-03-16T14:40:43.766Z,20.43
2018-03-16T14:43:17.421Z,20.40
2018-03-16T14:45:51.105Z,23.03
2018-03-16T14:48:24.700Z,22.80
2018-03-16T14:50:58.346Z,21.33
2018-03-16T14:53:31.970Z,21.67
2018-03-16T14:56:05.705Z,21.67
2018-03-16T14:58:39.313Z,20.97
2018-03-16T15:01:13.117Z,22.77
2018-03-16T15:03:46.648Z,22.77
2018-03-16T15:06:20.317Z,23.93
2018-03-16T15:08:54.065Z,22.00
2018-03-16T15:11:27.734Z,18.50
2018-03-16T15:14:01.344Z,19.87
2018-03-16T15:16:35.357Z,20.73
2018-03-16T15:19:09.139Z,20.40
2018-03-16T15:21:43.003Z,17.27
2018-03-16T15:24:16.833Z,19.03
2018-03-16T15:26:50.529Z,20.63
2018-03-16T15:29:24.257Z,16.57
2018-03-16T15:31:57.992Z,15.67
2018-03-16T15:34:31.684Z,15.73
2018-03-16T15:37:05.360Z,14.23
2018-03-16T15:39:39.009Z,14.27
2018-03-16T15:42:12.626Z,13.37
2018-03-16T15:44:46.293Z,11.23
2018-03-16T15:47:19.918Z,11.63
2018-03-16T15:49:53.576Z,12.63
2018-03-16T15:52:27.171Z,11.90
2018-03-16T15:55:00.828Z,12.03
2018-03-16T15:57:34.355Z,10.67
2018-03-16T16:00:07.886Z,10.40
2018-03-16T16:02:41.463Z,9.40
2018-03-16T16:05:14.994Z,9.03
2018-03-16T16:07:48.756Z,10.60
2018-03-16T16:10:22.504Z,9.80
2018-03-16T16:12:56.186Z,7.53
2018-03-16T16:15:29.907Z,8.50
2018-03-16T16:18:03.540Z,9.30
2018-03-16T16:20:37.180Z,9.70
2018-03-16T16:23:10.745Z,8.70
2018-03-16T16:25:44.460Z,10.07
2018-03-16T16:28:18.283Z,9.20
2018-03-16T16:30:51.939Z,8.83
2018-03-16T16:33:25.758Z,8.30
2018-03-16T16:35:59.318Z,8.93
2018-03-16T16:38:32.950Z,9.03
2018-03-16T16:41:06.610Z,9.67
2018-03-16T16:43:40.247Z,10.17
2018-03-16T16:46:13.827Z,8.97
2018-03-16T16:48:47.335Z,11.80
2018-03-16T16:51:20.915Z,11.57
2018-03-16T16:53:54.474Z,11.60
2018-03-16T16:56:28.140Z,12.43
2018-03-16T16:59:01.985Z,12.77
2018-03-16T17:01:35.510Z,13.67
2018-03-16T17:04:09.211Z,13.47
2018-03-16T17:06:43.103Z,13.77
2018-03-16T17:09:16.731Z,12.23
2018-03-16T17:11:50.516Z,15.07
2018-03-16T17:14:24.150Z,16.27
2018-03-16T17:16:57.916Z,16.50
2018-03-16T17:19:31.536Z,16.10
2018-03-16T17:22:05.296Z,16.40
2018-03-16T17:24:39.033Z,17.70
2018-03-16T17:27:12.674Z,19.20
2018-03-16T17:29:46.313Z,16.80
2018-03-16T17:32:24.243Z,17.60
2018-03-16T17:34:53.606Z,18.20
2018-03-16T17:37:27.129Z,18.67
2018-03-16T17:40:00.815Z,17.37
2018-03-16T17:42:34.645Z,16.80
2018-03-16T17:45:08.270Z,16.83
2018-03-16T17:47:41.955Z,15.80
2018-03-16T17:50:15.652Z,18.30
2018-03-16T17:52:49.428Z,18.00
2018-03-16T17:55:23.380Z,19.10
2018-03-16T17:57:57.055Z,17.50
2018-03-16T18:00:30.747Z,18.53
2018-03-16T18:03:04.438Z,18.37
2018-03-16T18:05:38.146Z,18.33
2018-03-16T18:08:11.760Z,17.90
2018-03-16T18:10:45.466Z,19.67
2018-03-16T18:13:19.059Z,17.93
2018-03-16T18:15:52.642Z,18.40
2018-03-16T18:18:26.211Z,18.40
2018-03-16T18:20:59.771Z,19.73
2018-03-16T18:23:33.441Z,18.97
2018-03-16T18:26:07.158Z,17.93
2018-03-16T18:28:40.834Z,19.53
2018-03-16T18:31:14.494Z,19.37
2018-03-16T18:33:49.078Z,19.33
2018-03-16T18:36:28.322Z,21.23
2018-03-16T18:39:01.915Z,20.93
2018-03-16T18:41:35.691Z,20.20
2018-03-16T18:44:09.311Z,18.47
2018-03-16T18:46:43.019Z,18.17
2018-03-16T18:49:16.724Z,19.20
2018-03-16T18:51:50.255Z,20.00
2018-03-16T18:54:23.854Z,19.80
2018-03-16T18:56:57.450Z,16.90
2018-03-16T18:59:31.029Z,19.77
2018-03-16T19:02:04.598Z,19.47
2018-03-16T19:04:38.230Z,19.73
2018-03-16T19:07:21.943Z,18.47
2018-03-16T19:09:55.575Z,19.77
2018-03-16T19:12:29.246Z,19.80
2018-03-16T19:15:02.906Z,18.57
2018-03-16T19:17:36.514Z,21.00
2018-03-16T19:20:10.048Z,19.10
2018-03-16T19:22:43.694Z,20.93
2018-03-16T19:25:17.378Z,21.60
2018-03-16T19:27:50.943Z,20.03
2018-03-16T19:30:24.592Z,20.97
2018-03-16T19:32:58.111Z,20.67
2018-03-16T19:35:31.781Z,20.40
2018-03-16T19:38:05.487Z,18.93
2018-03-16T19:40:39.114Z,21.90
2018-03-16T19:43:12.837Z,21.10
2018-03-16T19:45:46.459Z,21.20
2018-03-16T19:48:20.072Z,20.63
2018-03-16T19:50:53.656Z,21.60
2018-03-16T19:53:27.256Z,21.00
2018-03-16T19:56:00.909Z,19.43
2018-03-16T19:58:34.594Z,20.93
2018-03-16T20:01:08.247Z,20.77
2018-03-16T20:03:41.862Z,19.57
2018-03-16T20:06:15.693Z,21.37
2018-03-16T20:08:49.466Z,20.10
2018-03-16T20:11:23.066Z,20.70
2018-03-16T20:13:56.662Z,20.47
2018-03-16T20:16:30.313Z,19.87
2018-03-16T20:19:04.126Z,20.00
2018-03-16T20:21:37.794Z,19.47
2018-03-16T20:24:11.311Z,19.67
2018-03-16T20:26:44.984Z,20.73
2018-03-16T20:29:18.659Z,19.53
2018-03-16T20:31:52.286Z,19.57
2018-03-16T20:34:25.810Z,19.20
2018-03-16T20:36:59.445Z,18.90
2018-03-16T20:39:33.042Z,19.07
2018-03-16T20:42:06.754Z,19.70
2018-03-16T20:44:40.410Z,18.27
2018-03-16T20:47:14.108Z,18.73
2018-03-16T20:49:47.640Z,19.07
2018-03-16T20:52:21.244Z,17.53
2018-03-16T20:54:55.469Z,18.53
2018-03-16T20:57:29.008Z,17.50
2018-03-16T21:00:02.629Z,17.87
2018-03-16T21:02:36.319Z,18.03
2018-03-16T21:05:10.023Z,17.10
2018-03-16T21:07:43.751Z,18.07
2018-03-16T21:10:17.457Z,16.53
2018-03-16T21:12:51.106Z,17.00
2018-03-16T21:15:24.798Z,18.73
2018-03-16T21:17:58.414Z,17.17
2018-03-16T21:20:32.232Z,17.43
2018-03-16T21:23:05.962Z,18.23
2018-03-16T21:25:39.676Z,17.13
2018-03-16T21:28:13.456Z,16.83
2018-03-16T21:30:47.451Z,16.27
2018-03-16T21:33:21.078Z,16.70
2018-03-16T21:35:54.696Z,17.57
2018-03-16T21:38:28.250Z,17.07
2018-03-16T21:41:01.934Z,16.80
2018-03-16T21:43:35.454Z,19.03
2018-03-16T21:46:09.005Z,16.60
2018-03-16T21:48:42.695Z,16.93
2018-03-16T21:51:16.333Z,17.20
2018-03-16T21:53:49.978Z,16.10
2018-03-16T21:56:23.531Z,18.07
2018-03-16T21:58:57.475Z,16.50
2018-03-16T22:01:31.175Z,16.10
2018-03-16T22:04:04.808Z,18.03
2018-03-16T22:06:38.412Z,17.50
2018-03-16T22:09:12.055Z,17.20
2018-03-16T22:11:45.591Z,16.13
2018-03-16T22:14:19.391Z,17.03
2018-03-16T22:16:53.034Z,17.70
2018-03-16T22:19:26.747Z,16.70
2018-03-16T22:22:00.375Z,16.70
2018-03-16T22:24:34.040Z,16.40
2018-03-16T22:27:07.630Z,15.83
2018-03-16T22:29:41.295Z,16.17
2018-03-16T22:32:14.928Z,16.60
2018-03-16T22:34:48.560Z,16.67
2018-03-16T22:37:22.395Z,14.77
2018-03-16T22:39:56.172Z,14.47
2018-03-16T22:42:29.732Z,16.63
2018-03-16T22:45:03.431Z,15.67
2018-03-16T22:47:37.010Z,15.27
2018-03-16T22:50:10.742Z,14.57
2018-03-16T22:52:44.291Z,12.10
2018-03-16T22:55:18.008Z,14.93
2018-03-16T22:57:51.530Z,15.97
2018-03-16T23:00:25.119Z,15.73
2018-03-16T23:02:58.838Z,15.20
2018-03-16T23:05:32.460Z,15.77
2018-03-16T23:08:06.114Z,15.90
2018-03-16T23:10:39.634Z,16.00
2018-03-16T23:13:13.271Z,15.03
2018-03-16T23:15:46.899Z,16.63
2018-03-16T23:18:20.465Z,15.50
2018-03-16T23:20:54.195Z,16.27
2018-03-16T23:23:27.894Z,14.67
2018-03-16T23:26:01.596Z,15.53
2018-03-16T23:28:35.154Z,16.63
2018-03-16T23:31:08.690Z,16.93
2018-03-16T23:33:42.246Z,14.53
2018-03-16T23:36:16.020Z,17.17
2018-03-16T23:38:49.654Z,16.33
2018-03-16T23:41:23.134Z,16.00
2018-03-16T23:43:56.728Z,16.17
2018-03-16T23:46:30.545Z,16.27
2018-03-16T23:49:04.297Z,15.45
2018-03-16T23:51:37.942Z,17.40
2018-03-16T23:54:11.462Z,16.33
2018-03-16T23:56:45.131Z,16.80
2018-03-16T23:59:18.975Z,17.10
